sensor_id;sensor_type;location;lat;lon;timestamp;temperature;humidity
67547;HTU21D;54381;53.516;49.424;2022-10-30T00:00:36;2.36;98.23
67547;HTU21D;54381;53.516;49.424;2022-10-30T00:03:02;2.43;98.27
67547;HTU21D;54381;53.516;49.424;2022-10-30T00:05:28;2.49;98.20
67547;HTU21D;54381;53.516;49.424;2022-10-30T00:07:55;2.52;97.89
67547;HTU21D;54381;53.516;49.424;2022-10-30T00:10:22;2.53;97.94
67547;HTU21D;54381;53.516;49.424;2022-10-30T00:12:49;2.56;97.75
67547;HTU21D;54381;53.516;49.424;2022-10-30T00:15:15;2.54;97.70
67547;HTU21D;54381;53.516;49.424;2022-10-30T00:17:41;2.54;97.81
67547;HTU21D;54381;53.516;49.424;2022-10-30T00:20:08;2.53;97.74
67547;HTU21D;54381;53.516;49.424;2022-10-30T00:22:35;2.56;97.74
67547;HTU21D;54381;53.516;49.424;2022-10-30T00:25:02;2.57;97.78
67547;HTU21D;54381;53.516;49.424;2022-10-30T00:27:28;2.56;97.60
67547;HTU21D;54381;53.516;49.424;2022-10-30T00:29:54;2.59;97.44
67547;HTU21D;54381;53.516;49.424;2022-10-30T00:32:21;2.59;97.16
67547;HTU21D;54381;53.516;49.424;2022-10-30T00:34:47;2.60;97.42
67547;HTU21D;54381;53.516;49.424;2022-10-30T00:37:13;2.58;97.36
67547;HTU21D;54381;53.516;49.424;2022-10-30T00:39:39;2.58;97.39
67547;HTU21D;54381;53.516;49.424;2022-10-30T00:42:05;2.54;96.99
67547;HTU21D;54381;53.516;49.424;2022-10-30T00:50:24;2.44;97.34
67547;HTU21D;54381;53.516;49.424;2022-10-30T00:53:01;2.42;97.49
67547;HTU21D;54381;53.516;49.424;2022-10-30T00:55:32;2.41;97.44
67547;HTU21D;54381;53.516;49.424;2022-10-30T00:58:00;2.39;97.45
67547;HTU21D;54381;53.516;49.424;2022-10-30T01:00:28;2.38;97.48
67547;HTU21D;54381;53.516;49.424;2022-10-30T01:02:56;2.38;97.56
67547;HTU21D;54381;53.516;49.424;2022-10-30T01:05:24;2.36;97.49
67547;HTU21D;54381;53.516;49.424;2022-10-30T01:07:52;2.35;97.77
67547;HTU21D;54381;53.516;49.424;2022-10-30T01:10:19;2.37;97.78
67547;HTU21D;54381;53.516;49.424;2022-10-30T01:12:47;2.41;97.99
67547;HTU21D;54381;53.516;49.424;2022-10-30T01:15:14;2.43;97.95
67547;HTU21D;54381;53.516;49.424;2022-10-30T01:21:03;2.37;97.57
67547;HTU21D;54381;53.516;49.424;2022-10-30T01:29:34;2.34;97.86
67547;HTU21D;54381;53.516;49.424;2022-10-30T01:34:57;2.30;98.22
67547;HTU21D;54381;53.516;49.424;2022-10-30T01:40:16;2.27;98.51
67547;HTU21D;54381;53.516;49.424;2022-10-30T01:51:33;2.25;98.99
67547;HTU21D;54381;53.516;49.424;2022-10-30T02:00:11;2.27;98.89
67547;HTU21D;54381;53.516;49.424;2022-10-30T02:02:39;2.27;98.94
67547;HTU21D;54381;53.516;49.424;2022-10-30T02:05:06;2.27;98.75
67547;HTU21D;54381;53.516;49.424;2022-10-30T02:07:34;2.25;98.67
67547;HTU21D;54381;53.516;49.424;2022-10-30T02:10:01;2.24;98.77
67547;HTU21D;54381;53.516;49.424;2022-10-30T02:12:27;2.22;98.78
67547;HTU21D;54381;53.516;49.424;2022-10-30T02:14:57;2.22;98.84
67547;HTU21D;54381;53.516;49.424;2022-10-30T02:17:26;2.23;98.83
67547;HTU21D;54381;53.516;49.424;2022-10-30T02:19:52;2.23;98.85
67547;HTU21D;54381;53.516;49.424;2022-10-30T02:22:18;2.22;98.78
67547;HTU21D;54381;53.516;49.424;2022-10-30T02:24:44;2.23;98.74
67547;HTU21D;54381;53.516;49.424;2022-10-30T02:27:11;2.24;98.66
67547;HTU21D;54381;53.516;49.424;2022-10-30T02:29:37;2.25;98.54
67547;HTU21D;54381;53.516;49.424;2022-10-30T02:32:03;2.25;98.53
67547;HTU21D;54381;53.516;49.424;2022-10-30T02:34:29;2.24;98.41
67547;HTU21D;54381;53.516;49.424;2022-10-30T02:36:55;2.25;98.42
67547;HTU21D;54381;53.516;49.424;2022-10-30T02:39:21;2.24;98.26
67547;HTU21D;54381;53.516;49.424;2022-10-30T02:41:47;2.24;98.14
67547;HTU21D;54381;53.516;49.424;2022-10-30T02:44:13;2.25;97.99
67547;HTU21D;54381;53.516;49.424;2022-10-30T02:46:40;2.23;97.93
67547;HTU21D;54381;53.516;49.424;2022-10-30T02:49:06;2.23;98.09
67547;HTU21D;54381;53.516;49.424;2022-10-30T02:51:32;2.23;98.28
67547;HTU21D;54381;53.516;49.424;2022-10-30T02:53:59;2.23;98.35
67547;HTU21D;54381;53.516;49.424;2022-10-30T02:56:26;2.20;98.48
67547;HTU21D;54381;53.516;49.424;2022-10-30T02:58:54;2.21;98.57
67547;HTU21D;54381;53.516;49.424;2022-10-30T03:01:20;2.22;98.68
67547;HTU21D;54381;53.516;49.424;2022-10-30T03:03:47;2.22;98.75
67547;HTU21D;54381;53.516;49.424;2022-10-30T03:06:15;2.17;98.96
67547;HTU21D;54381;53.516;49.424;2022-10-30T03:08:42;2.15;99.46
67547;HTU21D;54381;53.516;49.424;2022-10-30T03:11:14;2.14;99.93
67547;HTU21D;54381;53.516;49.424;2022-10-30T03:13:42;2.14;100.24
67547;HTU21D;54381;53.516;49.424;2022-10-30T03:16:20;2.15;100.38
67547;HTU21D;54381;53.516;49.424;2022-10-30T03:18:47;2.16;100.52
67547;HTU21D;54381;53.516;49.424;2022-10-30T03:21:16;2.17;100.58
67547;HTU21D;54381;53.516;49.424;2022-10-30T03:23:43;2.19;100.52
67547;HTU21D;54381;53.516;49.424;2022-10-30T03:26:09;2.21;100.49
67547;HTU21D;54381;53.516;49.424;2022-10-30T03:28:35;2.22;100.41
67547;HTU21D;54381;53.516;49.424;2022-10-30T03:31:04;2.20;100.30
67547;HTU21D;54381;53.516;49.424;2022-10-30T03:33:31;2.23;100.38
67547;HTU21D;54381;53.516;49.424;2022-10-30T03:35:58;2.26;100.48
67547;HTU21D;54381;53.516;49.424;2022-10-30T03:38:24;2.26;100.35
67547;HTU21D;54381;53.516;49.424;2022-10-30T03:40:51;2.25;100.28
67547;HTU21D;54381;53.516;49.424;2022-10-30T03:43:17;2.26;100.09
67547;HTU21D;54381;53.516;49.424;2022-10-30T03:45:48;2.29;100.09
67547;HTU21D;54381;53.516;49.424;2022-10-30T03:48:16;2.30;99.89
67547;HTU21D;54381;53.516;49.424;2022-10-30T03:50:42;2.29;99.68
67547;HTU21D;54381;53.516;49.424;2022-10-30T03:53:08;2.27;99.56
67547;HTU21D;54381;53.516;49.424;2022-10-30T03:55:35;2.26;99.61
67547;HTU21D;54381;53.516;49.424;2022-10-30T03:58:01;2.24;99.58
67547;HTU21D;54381;53.516;49.424;2022-10-30T04:00:27;2.26;99.77
67547;HTU21D;54381;53.516;49.424;2022-10-30T04:02:53;2.25;99.78
67547;HTU21D;54381;53.516;49.424;2022-10-30T04:05:21;2.26;99.84
67547;HTU21D;54381;53.516;49.424;2022-10-30T04:07:53;2.27;99.75
67547;HTU21D;54381;53.516;49.424;2022-10-30T04:10:19;2.28;99.71
67547;HTU21D;54381;53.516;49.424;2022-10-30T04:12:45;2.28;99.47
67547;HTU21D;54381;53.516;49.424;2022-10-30T04:15:11;2.29;99.38
67547;HTU21D;54381;53.516;49.424;2022-10-30T04:17:38;2.34;99.46
67547;HTU21D;54381;53.516;49.424;2022-10-30T04:20:04;2.36;99.21
67547;HTU21D;54381;53.516;49.424;2022-10-30T04:22:30;2.41;99.17
67547;HTU21D;54381;53.516;49.424;2022-10-30T04:24:57;2.44;99.04
67547;HTU21D;54381;53.516;49.424;2022-10-30T04:27:23;2.47;98.77
67547;HTU21D;54381;53.516;49.424;2022-10-30T04:29:49;2.43;98.21
67547;HTU21D;54381;53.516;49.424;2022-10-30T04:32:15;2.40;98.35
67547;HTU21D;54381;53.516;49.424;2022-10-30T04:34:41;2.41;98.31
67547;HTU21D;54381;53.516;49.424;2022-10-30T04:37:07;2.40;98.22
67547;HTU21D;54381;53.516;49.424;2022-10-30T04:39:33;2.45;98.29
67547;HTU21D;54381;53.516;49.424;2022-10-30T04:42:00;2.55;98.00
67547;HTU21D;54381;53.516;49.424;2022-10-30T04:44:26;2.68;97.49
67547;HTU21D;54381;53.516;49.424;2022-10-30T04:46:52;2.76;96.97
67547;HTU21D;54381;53.516;49.424;2022-10-30T04:49:18;2.76;96.75
67547;HTU21D;54381;53.516;49.424;2022-10-30T04:51:44;2.74;96.71
67547;HTU21D;54381;53.516;49.424;2022-10-30T04:54:12;2.72;96.58
67547;HTU21D;54381;53.516;49.424;2022-10-30T04:56:38;2.71;96.35
67547;HTU21D;54381;53.516;49.424;2022-10-30T04:59:04;2.74;96.19
67547;HTU21D;54381;53.516;49.424;2022-10-30T05:01:31;2.75;96.29
67547;HTU21D;54381;53.516;49.424;2022-10-30T05:03:57;2.73;96.62
67547;HTU21D;54381;53.516;49.424;2022-10-30T05:06:28;2.72;97.07
67547;HTU21D;54381;53.516;49.424;2022-10-30T05:08:55;2.68;97.59
67547;HTU21D;54381;53.516;49.424;2022-10-30T05:11:21;2.57;98.45
67547;HTU21D;54381;53.516;49.424;2022-10-30T05:13:47;2.53;99.09
67547;HTU21D;54381;53.516;49.424;2022-10-30T05:16:14;2.51;99.48
67547;HTU21D;54381;53.516;49.424;2022-10-30T05:18:40;2.50;99.78
67547;HTU21D;54381;53.516;49.424;2022-10-30T05:21:06;2.52;99.74
67547;HTU21D;54381;53.516;49.424;2022-10-30T05:23:32;2.51;99.70
67547;HTU21D;54381;53.516;49.424;2022-10-30T05:26:01;2.47;99.80
67547;HTU21D;54381;53.516;49.424;2022-10-30T05:28:28;2.46;99.86
67547;HTU21D;54381;53.516;49.424;2022-10-30T05:30:54;2.44;100.26
67547;HTU21D;54381;53.516;49.424;2022-10-30T05:33:20;2.47;100.32
67547;HTU21D;54381;53.516;49.424;2022-10-30T05:35:46;2.42;100.02
67547;HTU21D;54381;53.516;49.424;2022-10-30T05:38:12;2.42;100.32
67547;HTU21D;54381;53.516;49.424;2022-10-30T05:40:38;2.42;99.85
67547;HTU21D;54381;53.516;49.424;2022-10-30T05:43:05;2.44;99.75
67547;HTU21D;54381;53.516;49.424;2022-10-30T05:45:31;2.51;100.22
67547;HTU21D;54381;53.516;49.424;2022-10-30T05:48:03;2.51;100.22
67547;HTU21D;54381;53.516;49.424;2022-10-30T05:50:30;2.56;100.22
67547;HTU21D;54381;53.516;49.424;2022-10-30T05:52:57;2.59;100.06
67547;HTU21D;54381;53.516;49.424;2022-10-30T05:55:24;2.59;99.81
67547;HTU21D;54381;53.516;49.424;2022-10-30T05:57:58;2.54;99.54
67547;HTU21D;54381;53.516;49.424;2022-10-30T06:00:25;2.49;99.41
67547;HTU21D;54381;53.516;49.424;2022-10-30T06:02:58;2.46;99.39
67547;HTU21D;54381;53.516;49.424;2022-10-30T06:05:24;2.49;99.48
67547;HTU21D;54381;53.516;49.424;2022-10-30T06:07:54;2.49;98.79
67547;HTU21D;54381;53.516;49.424;2022-10-30T06:10:24;2.47;99.07
67547;HTU21D;54381;53.516;49.424;2022-10-30T06:12:57;2.44;98.27
67547;HTU21D;54381;53.516;49.424;2022-10-30T06:15:24;2.45;98.56
67547;HTU21D;54381;53.516;49.424;2022-10-30T06:17:50;2.43;98.82
67547;HTU21D;54381;53.516;49.424;2022-10-30T06:20:17;2.46;99.23
67547;HTU21D;54381;53.516;49.424;2022-10-30T06:25:22;2.57;98.51
67547;HTU21D;54381;53.516;49.424;2022-10-30T06:27:49;2.58;97.97
67547;HTU21D;54381;53.516;49.424;2022-10-30T06:30:15;2.57;97.76
67547;HTU21D;54381;53.516;49.424;2022-10-30T06:32:41;2.58;97.90
67547;HTU21D;54381;53.516;49.424;2022-10-30T06:35:08;2.59;98.34
67547;HTU21D;54381;53.516;49.424;2022-10-30T06:37:34;2.59;97.97
67547;HTU21D;54381;53.516;49.424;2022-10-30T06:40:00;2.59;98.03
67547;HTU21D;54381;53.516;49.424;2022-10-30T06:42:26;2.59;99.25
67547;HTU21D;54381;53.516;49.424;2022-10-30T06:44:52;2.57;97.94
67547;HTU21D;54381;53.516;49.424;2022-10-30T06:47:19;2.56;98.47
67547;HTU21D;54381;53.516;49.424;2022-10-30T06:49:45;2.59;98.48
67547;HTU21D;54381;53.516;49.424;2022-10-30T06:52:11;2.64;98.55
67547;HTU21D;54381;53.516;49.424;2022-10-30T06:54:37;2.67;98.76
67547;HTU21D;54381;53.516;49.424;2022-10-30T06:57:03;2.71;98.81
67547;HTU21D;54381;53.516;49.424;2022-10-30T06:59:29;2.74;98.57
67547;HTU21D;54381;53.516;49.424;2022-10-30T07:01:56;2.74;98.53
67547;HTU21D;54381;53.516;49.424;2022-10-30T07:04:22;2.74;97.99
67547;HTU21D;54381;53.516;49.424;2022-10-30T07:06:48;2.78;98.03
67547;HTU21D;54381;53.516;49.424;2022-10-30T07:09:14;2.80;98.02
67547;HTU21D;54381;53.516;49.424;2022-10-30T07:11:40;2.84;97.83
67547;HTU21D;54381;53.516;49.424;2022-10-30T07:14:11;2.88;97.95
67547;HTU21D;54381;53.516;49.424;2022-10-30T07:16:37;2.91;98.09
67547;HTU21D;54381;53.516;49.424;2022-10-30T07:19:03;2.90;98.04
67547;HTU21D;54381;53.516;49.424;2022-10-30T07:21:29;2.89;98.01
67547;HTU21D;54381;53.516;49.424;2022-10-30T07:23:56;2.94;98.42
67547;HTU21D;54381;53.516;49.424;2022-10-30T07:26:22;2.96;98.43
67547;HTU21D;54381;53.516;49.424;2022-10-30T07:28:48;3.01;98.53
67547;HTU21D;54381;53.516;49.424;2022-10-30T07:31:14;3.03;98.62
67547;HTU21D;54381;53.516;49.424;2022-10-30T07:33:41;3.05;98.64
67547;HTU21D;54381;53.516;49.424;2022-10-30T07:36:07;3.06;98.51
67547;HTU21D;54381;53.516;49.424;2022-10-30T07:38:33;3.09;98.48
67547;HTU21D;54381;53.516;49.424;2022-10-30T07:41:00;3.10;98.23
67547;HTU21D;54381;53.516;49.424;2022-10-30T07:43:26;3.13;98.26
67547;HTU21D;54381;53.516;49.424;2022-10-30T07:45:52;3.14;98.16
67547;HTU21D;54381;53.516;49.424;2022-10-30T07:48:18;3.13;98.26
67547;HTU21D;54381;53.516;49.424;2022-10-30T07:50:44;3.11;98.36
67547;HTU21D;54381;53.516;49.424;2022-10-30T07:53:10;3.13;98.52
67547;HTU21D;54381;53.516;49.424;2022-10-30T07:55:37;3.16;98.80
67547;HTU21D;54381;53.516;49.424;2022-10-30T07:58:03;3.16;98.80
67547;HTU21D;54381;53.516;49.424;2022-10-30T08:00:29;3.17;98.66
67547;HTU21D;54381;53.516;49.424;2022-10-30T08:02:56;3.19;98.62
67547;HTU21D;54381;53.516;49.424;2022-10-30T08:05:23;3.20;98.57
67547;HTU21D;54381;53.516;49.424;2022-10-30T08:07:49;3.21;98.55
67547;HTU21D;54381;53.516;49.424;2022-10-30T08:10:15;3.24;98.48
67547;HTU21D;54381;53.516;49.424;2022-10-30T08:12:42;3.26;98.52
67547;HTU21D;54381;53.516;49.424;2022-10-30T08:15:09;3.29;98.48
67547;HTU21D;54381;53.516;49.424;2022-10-30T08:17:43;3.35;98.32
67547;HTU21D;54381;53.516;49.424;2022-10-30T08:20:11;3.39;98.05
67547;HTU21D;54381;53.516;49.424;2022-10-30T08:22:51;3.43;97.93
67547;HTU21D;54381;53.516;49.424;2022-10-30T08:25:19;3.47;97.51
67547;HTU21D;54381;53.516;49.424;2022-10-30T08:28:00;3.52;97.02
67547;HTU21D;54381;53.516;49.424;2022-10-30T08:30:32;3.57;97.26
67547;HTU21D;54381;53.516;49.424;2022-10-30T08:33:07;3.55;97.03
67547;HTU21D;54381;53.516;49.424;2022-10-30T08:35:34;3.56;97.03
67547;HTU21D;54381;53.516;49.424;2022-10-30T08:38:01;3.62;97.23
67547;HTU21D;54381;53.516;49.424;2022-10-30T08:40:30;3.63;97.08
67547;HTU21D;54381;53.516;49.424;2022-10-30T08:42:57;3.63;96.94
67547;HTU21D;54381;53.516;49.424;2022-10-30T08:45:24;3.69;96.83
67547;HTU21D;54381;53.516;49.424;2022-10-30T08:48:00;3.73;96.56
67547;HTU21D;54381;53.516;49.424;2022-10-30T08:50:29;3.76;96.57
67547;HTU21D;54381;53.516;49.424;2022-10-30T08:52:55;3.78;96.13
67547;HTU21D;54381;53.516;49.424;2022-10-30T08:55:24;3.78;95.46
67547;HTU21D;54381;53.516;49.424;2022-10-30T08:57:50;3.80;95.67
67547;HTU21D;54381;53.516;49.424;2022-10-30T09:00:17;3.78;96.16
67547;HTU21D;54381;53.516;49.424;2022-10-30T09:02:43;3.78;96.49
67547;HTU21D;54381;53.516;49.424;2022-10-30T09:05:10;3.77;96.35
67547;HTU21D;54381;53.516;49.424;2022-10-30T09:07:36;3.83;96.75
67547;HTU21D;54381;53.516;49.424;2022-10-30T09:10:03;3.83;96.67
67547;HTU21D;54381;53.516;49.424;2022-10-30T09:12:29;3.85;96.62
67547;HTU21D;54381;53.516;49.424;2022-10-30T09:14:55;3.90;97.02
67547;HTU21D;54381;53.516;49.424;2022-10-30T09:17:22;3.92;96.44
67547;HTU21D;54381;53.516;49.424;2022-10-30T09:19:48;3.97;96.21
67547;HTU21D;54381;53.516;49.424;2022-10-30T09:22:14;3.95;97.04
67547;HTU21D;54381;53.516;49.424;2022-10-30T09:24:40;3.97;97.83
67547;HTU21D;54381;53.516;49.424;2022-10-30T09:27:06;3.97;97.88
67547;HTU21D;54381;53.516;49.424;2022-10-30T09:29:33;3.95;97.94
67547;HTU21D;54381;53.516;49.424;2022-10-30T09:32:00;3.97;98.31
67547;HTU21D;54381;53.516;49.424;2022-10-30T09:34:27;3.94;98.21
67547;HTU21D;54381;53.516;49.424;2022-10-30T09:36:53;3.97;98.34
67547;HTU21D;54381;53.516;49.424;2022-10-30T09:39:19;4.00;98.33
67547;HTU21D;54381;53.516;49.424;2022-10-30T09:42:43;4.00;97.84
67547;HTU21D;54381;53.516;49.424;2022-10-30T09:53:37;4.13;97.70
67547;HTU21D;54381;53.516;49.424;2022-10-30T09:56:36;4.18;97.20
67547;HTU21D;54381;53.516;49.424;2022-10-30T10:06:52;4.18;96.86
67547;HTU21D;54381;53.516;49.424;2022-10-30T10:09:20;4.21;97.26
67547;HTU21D;54381;53.516;49.424;2022-10-30T10:12:03;4.21;97.66
67547;HTU21D;54381;53.516;49.424;2022-10-30T10:14:35;4.22;97.41
67547;HTU21D;54381;53.516;49.424;2022-10-30T10:17:04;4.26;96.93
67547;HTU21D;54381;53.516;49.424;2022-10-30T10:25:26;4.24;96.98
67547;HTU21D;54381;53.516;49.424;2022-10-30T10:28:10;4.26;97.18
67547;HTU21D;54381;53.516;49.424;2022-10-30T10:33:32;4.31;96.99
67547;HTU21D;54381;53.516;49.424;2022-10-30T10:36:15;4.31;97.64
67547;HTU21D;54381;53.516;49.424;2022-10-30T10:44:45;4.32;98.40
67547;HTU21D;54381;53.516;49.424;2022-10-30T10:50:26;4.32;98.63
67547;HTU21D;54381;53.516;49.424;2022-10-30T10:52:57;4.33;98.83
67547;HTU21D;54381;53.516;49.424;2022-10-30T10:55:34;4.33;98.79
67547;HTU21D;54381;53.516;49.424;2022-10-30T10:58:26;4.32;98.70
67547;HTU21D;54381;53.516;49.424;2022-10-30T11:00:55;4.34;98.79
67547;HTU21D;54381;53.516;49.424;2022-10-30T11:06:10;4.37;98.74
67547;HTU21D;54381;53.516;49.424;2022-10-30T11:08:42;4.37;98.80
67547;HTU21D;54381;53.516;49.424;2022-10-30T11:11:08;4.36;98.78
67547;HTU21D;54381;53.516;49.424;2022-10-30T11:13:37;4.39;99.35
67547;HTU21D;54381;53.516;49.424;2022-10-30T11:16:30;4.34;99.21
67547;HTU21D;54381;53.516;49.424;2022-10-30T11:18:59;4.32;99.67
67547;HTU21D;54381;53.516;49.424;2022-10-30T11:21:28;4.31;99.88
67547;HTU21D;54381;53.516;49.424;2022-10-30T11:23:55;4.33;99.92
67547;HTU21D;54381;53.516;49.424;2022-10-30T11:31:38;4.35;100.03
67547;HTU21D;54381;53.516;49.424;2022-10-30T11:36:47;4.36;100.12
67547;HTU21D;54381;53.516;49.424;2022-10-30T11:39:33;4.35;100.45
67547;HTU21D;54381;53.516;49.424;2022-10-30T11:42:12;4.35;100.61
67547;HTU21D;54381;53.516;49.424;2022-10-30T11:44:48;4.37;100.67
67547;HTU21D;54381;53.516;49.424;2022-10-30T11:47:17;4.39;100.50
67547;HTU21D;54381;53.516;49.424;2022-10-30T11:49:49;4.44;100.54
67547;HTU21D;54381;53.516;49.424;2022-10-30T11:52:18;4.43;100.41
67547;HTU21D;54381;53.516;49.424;2022-10-30T11:55:12;4.46;100.38
67547;HTU21D;54381;53.516;49.424;2022-10-30T11:57:47;4.47;100.24
67547;HTU21D;54381;53.516;49.424;2022-10-30T12:00:18;4.48;100.36
67547;HTU21D;54381;53.516;49.424;2022-10-30T12:02:47;4.48;100.44
67547;HTU21D;54381;53.516;49.424;2022-10-30T12:10:44;4.50;100.65
67547;HTU21D;54381;53.516;49.424;2022-10-30T12:13:16;4.49;101.13
67547;HTU21D;54381;53.516;49.424;2022-10-30T12:15:44;4.51;101.43
67547;HTU21D;54381;53.516;49.424;2022-10-30T12:18:25;4.52;101.48
67547;HTU21D;54381;53.516;49.424;2022-10-30T12:20:55;4.54;101.59
67547;HTU21D;54381;53.516;49.424;2022-10-30T12:23:26;4.56;101.40
67547;HTU21D;54381;53.516;49.424;2022-10-30T12:25:57;4.59;101.49
67547;HTU21D;54381;53.516;49.424;2022-10-30T12:28:25;4.61;101.63
67547;HTU21D;54381;53.516;49.424;2022-10-30T12:31:08;4.62;101.64
67547;HTU21D;54381;53.516;49.424;2022-10-30T12:33:43;4.65;101.80
67547;HTU21D;54381;53.516;49.424;2022-10-30T12:36:19;4.68;101.75
67547;HTU21D;54381;53.516;49.424;2022-10-30T12:39:41;4.68;101.83
67547;HTU21D;54381;53.516;49.424;2022-10-30T12:42:03;4.68;101.82
67547;HTU21D;54381;53.516;49.424;2022-10-30T12:44:35;4.69;101.89
67547;HTU21D;54381;53.516;49.424;2022-10-30T12:57:34;4.80;102.13
67547;HTU21D;54381;53.516;49.424;2022-10-30T13:02:55;4.83;102.12
67547;HTU21D;54381;53.516;49.424;2022-10-30T13:05:36;4.90;102.15
67547;HTU21D;54381;53.516;49.424;2022-10-30T13:09:25;4.91;102.18
67547;HTU21D;54381;53.516;49.424;2022-10-30T13:14:19;4.95;102.25
67547;HTU21D;54381;53.516;49.424;2022-10-30T13:16:49;4.98;102.22
67547;HTU21D;54381;53.516;49.424;2022-10-30T13:19:15;5.03;102.22
67547;HTU21D;54381;53.516;49.424;2022-10-30T13:27:28;5.18;102.15
67547;HTU21D;54381;53.516;49.424;2022-10-30T13:30:16;5.23;102.24
67547;HTU21D;54381;53.516;49.424;2022-10-30T13:33:05;5.33;102.25
67547;HTU21D;54381;53.516;49.424;2022-10-30T13:35:55;5.39;102.14
67547;HTU21D;54381;53.516;49.424;2022-10-30T13:41:28;5.45;101.98
67547;HTU21D;54381;53.516;49.424;2022-10-30T13:51:44;5.54;101.71
67547;HTU21D;54381;53.516;49.424;2022-10-30T13:54:34;5.50;101.63
67547;HTU21D;54381;53.516;49.424;2022-10-30T13:57:36;5.51;101.70
67547;HTU21D;54381;53.516;49.424;2022-10-30T14:00:28;5.53;101.76
67547;HTU21D;54381;53.516;49.424;2022-10-30T14:09:34;5.56;101.85
67547;HTU21D;54381;53.516;49.424;2022-10-30T14:15:33;5.70;102.06
67547;HTU21D;54381;53.516;49.424;2022-10-30T14:20:52;5.68;101.89
67547;HTU21D;54381;53.516;49.424;2022-10-30T14:26:11;5.71;102.09
67547;HTU21D;54381;53.516;49.424;2022-10-30T14:28:43;5.74;102.09
67547;HTU21D;54381;53.516;49.424;2022-10-30T14:31:15;5.78;102.11
67547;HTU21D;54381;53.516;49.424;2022-10-30T14:33:43;5.80;102.08
67547;HTU21D;54381;53.516;49.424;2022-10-30T14:36:25;5.83;102.11
67547;HTU21D;54381;53.516;49.424;2022-10-30T14:41:47;5.89;102.01
67547;HTU21D;54381;53.516;49.424;2022-10-30T14:57:46;5.97;101.87
67547;HTU21D;54381;53.516;49.424;2022-10-30T15:13:58;6.27;102.07
67547;HTU21D;54381;53.516;49.424;2022-10-30T15:16:26;6.29;102.10
67547;HTU21D;54381;53.516;49.424;2022-10-30T15:19:03;6.35;102.09
67547;HTU21D;54381;53.516;49.424;2022-10-30T15:21:37;6.36;102.06
67547;HTU21D;54381;53.516;49.424;2022-10-30T15:24:13;6.37;102.06
67547;HTU21D;54381;53.516;49.424;2022-10-30T15:26:43;6.39;102.07
67547;HTU21D;54381;53.516;49.424;2022-10-30T15:29:34;6.39;101.99
67547;HTU21D;54381;53.516;49.424;2022-10-30T15:32:04;6.39;102.00
67547;HTU21D;54381;53.516;49.424;2022-10-30T15:34:36;6.40;102.02
67547;HTU21D;54381;53.516;49.424;2022-10-30T15:37:10;6.41;102.03
67547;HTU21D;54381;53.516;49.424;2022-10-30T15:39:37;6.43;102.06
67547;HTU21D;54381;53.516;49.424;2022-10-30T15:42:04;6.41;102.05
67547;HTU21D;54381;53.516;49.424;2022-10-30T15:44:35;6.43;102.06
67547;HTU21D;54381;53.516;49.424;2022-10-30T15:47:03;6.43;102.09
67547;HTU21D;54381;53.516;49.424;2022-10-30T15:49:36;6.44;102.12
67547;HTU21D;54381;53.516;49.424;2022-10-30T15:52:17;6.46;102.20
67547;HTU21D;54381;53.516;49.424;2022-10-30T15:54:46;6.50;102.24
67547;HTU21D;54381;53.516;49.424;2022-10-30T15:57:28;6.52;102.25
67547;HTU21D;54381;53.516;49.424;2022-10-30T15:59:58;6.55;102.26
67547;HTU21D;54381;53.516;49.424;2022-10-30T16:02:25;6.54;102.26
67547;HTU21D;54381;53.516;49.424;2022-10-30T16:04:54;6.55;102.25
67547;HTU21D;54381;53.516;49.424;2022-10-30T16:07:26;6.55;102.28
67547;HTU21D;54381;53.516;49.424;2022-10-30T16:09:57;6.57;102.32
67547;HTU21D;54381;53.516;49.424;2022-10-30T16:12:30;6.61;102.41
67547;HTU21D;54381;53.516;49.424;2022-10-30T16:15:05;6.63;102.41
67547;HTU21D;54381;53.516;49.424;2022-10-30T16:17:32;6.64;102.44
67547;HTU21D;54381;53.516;49.424;2022-10-30T16:20:00;6.65;102.47
67547;HTU21D;54381;53.516;49.424;2022-10-30T16:22:32;6.69;102.53
67547;HTU21D;54381;53.516;49.424;2022-10-30T16:24:59;6.71;102.58
67547;HTU21D;54381;53.516;49.424;2022-10-30T16:27:25;6.73;102.60
67547;HTU21D;54381;53.516;49.424;2022-10-30T16:29:55;6.76;102.63
67547;HTU21D;54381;53.516;49.424;2022-10-30T16:32:26;6.79;102.67
67547;HTU21D;54381;53.516;49.424;2022-10-30T16:35:00;6.84;102.69
67547;HTU21D;54381;53.516;49.424;2022-10-30T16:39:58;6.89;102.73
67547;HTU21D;54381;53.516;49.424;2022-10-30T16:42:26;6.96;102.83
67547;HTU21D;54381;53.516;49.424;2022-10-30T16:47:39;7.03;102.70
67547;HTU21D;54381;53.516;49.424;2022-10-30T16:50:13;7.04;102.64
67547;HTU21D;54381;53.516;49.424;2022-10-30T16:52:40;7.03;102.57
67547;HTU21D;54381;53.516;49.424;2022-10-30T16:55:14;7.05;102.58
67547;HTU21D;54381;53.516;49.424;2022-10-30T16:57:42;7.05;102.60
67547;HTU21D;54381;53.516;49.424;2022-10-30T17:00:23;7.08;102.55
67547;HTU21D;54381;53.516;49.424;2022-10-30T17:02:51;7.07;102.54
67547;HTU21D;54381;53.516;49.424;2022-10-30T17:05:29;7.08;102.58
67547;HTU21D;54381;53.516;49.424;2022-10-30T17:07:56;7.10;102.63
67547;HTU21D;54381;53.516;49.424;2022-10-30T17:10:40;7.09;102.63
67547;HTU21D;54381;53.516;49.424;2022-10-30T17:13:36;7.14;102.71
67547;HTU21D;54381;53.516;49.424;2022-10-30T17:18:41;7.15;102.77
67547;HTU21D;54381;53.516;49.424;2022-10-30T17:21:12;7.14;102.76
67547;HTU21D;54381;53.516;49.424;2022-10-30T17:23:50;7.18;102.83
67547;HTU21D;54381;53.516;49.424;2022-10-30T17:26:17;7.22;102.89
67547;HTU21D;54381;53.516;49.424;2022-10-30T17:28:44;7.27;102.96
67547;HTU21D;54381;53.516;49.424;2022-10-30T17:33:44;7.35;103.00
67547;HTU21D;54381;53.516;49.424;2022-10-30T17:36:10;7.38;102.93
67547;HTU21D;54381;53.516;49.424;2022-10-30T17:38:37;7.40;102.91
67547;HTU21D;54381;53.516;49.424;2022-10-30T17:41:04;7.42;102.81
67547;HTU21D;54381;53.516;49.424;2022-10-30T17:43:51;7.40;102.70
67547;HTU21D;54381;53.516;49.424;2022-10-30T17:46:18;7.40;102.64
67547;HTU21D;54381;53.516;49.424;2022-10-30T17:48:44;7.42;102.63
67547;HTU21D;54381;53.516;49.424;2022-10-30T17:51:13;7.45;102.56
67547;HTU21D;54381;53.516;49.424;2022-10-30T17:53:41;7.46;102.45
67547;HTU21D;54381;53.516;49.424;2022-10-30T17:56:19;7.46;102.41
67547;HTU21D;54381;53.516;49.424;2022-10-30T17:58:46;7.47;102.32
67547;HTU21D;54381;53.516;49.424;2022-10-30T18:01:21;7.48;102.29
67547;HTU21D;54381;53.516;49.424;2022-10-30T18:03:49;7.53;102.17
67547;HTU21D;54381;53.516;49.424;2022-10-30T18:06:26;7.55;102.10
67547;HTU21D;54381;53.516;49.424;2022-10-30T18:08:53;7.57;101.93
67547;HTU21D;54381;53.516;49.424;2022-10-30T18:11:21;7.60;101.77
67547;HTU21D;54381;53.516;49.424;2022-10-30T18:13:49;7.59;101.68
67547;HTU21D;54381;53.516;49.424;2022-10-30T18:16:17;7.61;101.68
67547;HTU21D;54381;53.516;49.424;2022-10-30T18:18:43;7.63;101.72
67547;HTU21D;54381;53.516;49.424;2022-10-30T18:21:18;7.65;101.65
67547;HTU21D;54381;53.516;49.424;2022-10-30T18:23:44;7.68;101.70